Time;durP1;ratioP1;P1;durP2;ratioP2;P2;SDS_P1;SDS_P2;PMS_P1;PMS_P2;Temp;Humidity;BMP_temperature;BMP_pressure;BME280_temperature;BME280_humidity;BME280_pressure;Samples;Min_cycle;Max_cycle;Signal;HPM_P1;HPM_P2
2022/07/13 00:01:58;;;;;;;2.30;1.30;;;17.10;97.40;;;16.95;80.85;97953.22;4955191;28;20039;-43
2022/07/13 00:04:24;;;;;;;2.30;1.20;;;17.00;97.70;;;16.92;81.17;97952.53;4973850;23;21036;-56
2022/07/13 00:06:50;;;;;;;1.40;1.10;;;17.00;98.00;;;16.89;81.16;97961.56;4960078;28;20030;-49
2022/07/13 00:09:16;;;;;;;2.25;1.30;;;17.00;98.10;;;16.88;81.53;97959.81;4957839;28;20078;-49
2022/07/13 00:11:41;;;;;;;2.05;1.30;;;16.90;98.30;;;16.85;83.12;97957.34;4957111;28;20395;-47
2022/07/13 00:14:25;;;;;;;2.58;1.30;;;16.90;98.80;;;16.80;83.56;97951.38;4946114;28;20292;-44
2022/07/13 00:16:50;;;;;;;3.13;1.63;;;16.90;99.00;;;16.77;83.61;97955.03;4941460;28;20031;-47
2022/07/13 00:19:16;;;;;;;1.20;1.10;;;16.80;99.20;;;16.73;83.65;97947.31;4942769;28;20519;-49
2022/07/13 00:21:42;;;;;;;1.90;1.30;;;16.80;99.30;;;16.69;83.58;97949.28;4940515;28;20031;-48
2022/07/13 00:24:07;;;;;;;1.95;1.23;;;16.80;99.30;;;16.67;83.59;97947.63;4941105;28;20039;-49
2022/07/13 00:26:33;;;;;;;2.97;1.50;;;16.70;99.40;;;16.68;83.09;97957.34;4944589;28;20054;-46
2022/07/13 00:28:59;;;;;;;2.47;1.08;;;16.70;99.30;;;16.67;83.10;97956.50;4942355;28;20502;-47
2022/07/13 00:31:24;;;;;;;1.88;1.20;;;16.70;99.40;;;16.64;83.39;97958.44;4940985;28;20027;-49
2022/07/13 00:33:50;;;;;;;1.85;1.20;;;16.70;99.60;;;16.61;83.06;97954.97;4942070;28;20027;-46
2022/07/13 00:36:16;;;;;;;1.50;1.15;;;16.70;99.60;;;16.63;82.35;97954.06;4944311;28;20027;-46
2022/07/13 00:38:41;;;;;;;1.48;1.20;;;16.70;99.50;;;16.62;82.34;97950.53;4945701;28;20029;-49
2022/07/13 00:41:07;;;;;;;3.13;1.27;;;16.70;99.60;;;16.58;82.96;97952.50;4939013;28;20036;-48
2022/07/13 00:43:33;;;;;;;1.58;1.00;;;16.70;99.70;;;16.59;82.57;97959.53;4941683;28;20551;-49
2022/07/13 00:45:59;;;;;;;2.13;1.05;;;16.70;99.80;;;16.60;82.29;97955.09;4943360;28;20514;-47
2022/07/13 00:48:26;;;;;;;3.00;1.13;;;16.70;99.70;;;16.56;82.99;97957.06;4931747;28;20411;-49
2022/07/13 00:50:52;;;;;;;1.00;0.90;;;16.60;99.90;;;16.50;83.68;97959.16;4942906;28;20042;-47
2022/07/13 00:53:19;;;;;;;2.13;1.23;;;16.60;99.90;;;16.44;83.80;97952.38;4942824;28;20035;-50
2022/07/13 00:55:46;;;;;;;2.67;1.20;;;16.50;99.90;;;16.36;84.38;97949.22;4944068;28;20081;-49
2022/07/13 00:58:12;;;;;;;6.03;1.38;;;16.50;99.90;;;16.35;84.90;97958.16;4942864;28;20047;-49
2022/07/13 01:00:38;;;;;;;1.70;1.30;;;16.40;99.90;;;16.32;85.71;97956.50;4942710;28;20062;-47
2022/07/13 01:03:04;;;;;;;1.83;1.23;;;16.40;99.90;;;16.29;86.62;97946.00;4943505;28;20059;-47
2022/07/13 01:05:30;;;;;;;2.47;1.50;;;16.30;99.90;;;16.27;87.58;97950.56;4949297;28;20031;-50
2022/07/13 01:07:56;;;;;;;2.33;1.42;;;16.30;99.90;;;16.22;88.14;97944.59;4943319;28;20081;-47
2022/07/13 01:10:22;;;;;;;1.60;1.27;;;16.30;99.90;;;16.22;88.17;97942.81;4942744;28;20044;-46
2022/07/13 01:12:48;;;;;;;1.58;1.17;;;16.30;99.90;;;16.22;89.09;97944.59;4946524;28;20395;-49
2022/07/13 01:15:15;;;;;;;1.30;1.08;;;16.30;99.90;;;16.19;90.28;97936.78;4945124;28;20036;-46
2022/07/13 01:17:41;;;;;;;1.83;1.35;;;16.30;99.90;;;16.17;91.48;97936.88;4927773;28;20019;-50
2022/07/13 01:20:08;;;;;;;2.00;1.20;;;16.30;99.90;;;16.11;91.65;97926.53;4941392;28;20038;-50
2022/07/13 01:22:41;;;;;;;2.42;1.38;;;16.30;99.90;;;16.13;91.95;97931.78;4947299;28;20035;-48
2022/07/13 01:25:08;;;;;;;1.27;1.13;;;16.30;99.90;;;16.14;92.07;97934.34;4946958;28;20499;-50
2022/07/13 01:27:38;;;;;;;1.73;1.30;;;16.30;99.90;;;16.13;91.96;97927.34;4948243;28;20468;-47
2022/07/13 01:30:05;;;;;;;1.95;1.20;;;16.30;99.90;;;16.14;91.82;97926.38;4946663;28;20050;-49
2022/07/13 01:32:50;;;;;;;2.00;1.25;;;16.30;99.90;;;16.17;91.44;97928.03;4948388;28;20208;-49
2022/07/13 01:35:17;;;;;;;2.85;1.10;;;16.30;99.90;;;16.19;91.12;97926.16;4941988;28;20031;-49
2022/07/13 01:37:44;;;;;;;2.28;1.23;;;16.30;99.90;;;16.18;91.27;97925.28;4945760;28;20354;-47
2022/07/13 01:40:14;;;;;;;1.73;1.25;;;16.30;99.90;;;16.29;91.03;97924.72;4947473;28;20031;-49
2022/07/13 01:42:45;;;;;;;1.80;1.27;;;16.40;99.90;;;16.33;90.43;97923.66;4951972;28;20034;-49
2022/07/13 01:45:13;;;;;;;2.13;1.10;;;16.50;99.90;;;16.39;89.83;97931.28;4945644;28;20041;-46
2022/07/13 01:47:46;;;;;;;1.92;1.20;;;16.50;99.90;;;16.45;89.08;97926.59;4952759;28;20062;-48
2022/07/13 01:50:14;;;;;;;1.25;1.13;;;16.60;99.90;;;16.52;88.25;97926.19;4944224;28;20122;-49
2022/07/13 01:52:40;;;;;;;1.23;1.10;;;16.60;99.90;;;16.56;88.11;97925.09;4951318;28;20046;-51
2022/07/13 01:55:09;;;;;;;2.03;1.00;;;16.70;99.90;;;16.60;88.03;97929.31;4947502;28;20043;-47
2022/07/13 01:57:35;;;;;;;1.17;1.00;;;16.70;99.90;;;16.54;87.78;97905.66;4947244;28;20094;-49
2022/07/13 02:00:08;;;;;;;1.45;1.00;;;16.70;99.90;;;16.61;87.27;97928.34;4941170;28;20074;-48
2022/07/13 02:02:34;;;;;;;1.63;1.20;;;16.70;99.90;;;16.60;87.33;97917.81;4943819;28;20243;-49
2022/07/13 02:04:59;;;;;;;2.00;1.10;;;16.70;99.90;;;16.58;87.47;97917.88;4943653;28;20034;-48
2022/07/13 02:07:25;;;;;;;1.02;0.90;;;16.70;99.90;;;16.54;87.30;97924.28;4949623;28;20043;-48
2022/07/13 02:09:51;;;;;;;2.47;1.00;;;16.60;99.90;;;16.51;87.29;97915.59;4946268;28;20031;-47
2022/07/13 02:12:17;;;;;;;2.03;1.10;;;16.60;99.90;;;16.49;87.96;97913.06;4945472;28;20027;-48
2022/07/13 02:14:44;;;;;;;3.20;1.35;;;16.60;99.90;;;16.46;88.07;97910.53;4947258;28;20039;-46
2022/07/13 02:17:10;;;;;;;1.77;0.98;;;16.60;99.90;;;16.43;88.24;97902.72;4946632;28;20031;-49
2022/07/13 02:19:35;;;;;;;2.35;1.00;;;16.50;99.90;;;16.41;88.49;97900.13;4946149;28;20039;-45
2022/07/13 02:22:02;;;;;;;1.02;0.95;;;16.50;99.90;;;16.40;88.89;97894.88;4943551;28;20308;-47
2022/07/13 02:24:27;;;;;;;1.52;1.10;;;16.50;99.90;;;16.41;89.04;97893.94;4925148;28;20106;-48
2022/07/13 02:26:53;;;;;;;3.40;1.30;;;16.50;99.90;;;16.40;88.77;97882.44;4945584;28;20040;-47
2022/07/13 02:29:19;;;;;;;1.73;1.00;;;16.60;99.90;;;16.41;88.33;97881.50;4946062;28;20042;-47
2022/07/13 02:31:44;;;;;;;2.35;1.15;;;16.60;99.90;;;16.44;87.97;97871.63;4942409;28;20020;-47
2022/07/13 02:34:10;;;;;;;2.05;1.05;;;16.60;99.90;;;16.45;87.79;97874.19;4940980;28;20034;-48
2022/07/13 02:36:36;;;;;;;2.30;1.15;;;16.60;99.90;;;16.48;88.21;97867.88;4947066;28;20047;-45
2022/07/13 02:39:02;;;;;;;2.30;1.17;;;16.60;99.90;;;16.47;87.99;97869.66;4944589;28;20449;-46
2022/07/13 02:41:28;;;;;;;1.58;1.10;;;16.60;99.90;;;16.47;87.85;97869.66;4944307;28;20122;-49
2022/07/13 02:43:54;;;;;;;2.60;1.42;;;16.60;99.90;;;16.47;88.05;97866.13;4945957;28;20122;-49
2022/07/13 02:46:19;;;;;;;3.72;1.33;;;16.60;99.90;;;16.43;87.69;97862.78;4945815;28;20243;-48
2022/07/13 02:48:45;;;;;;;1.95;1.23;;;16.60;99.90;;;16.42;87.84;97869.91;4947669;28;22378;-47
2022/07/13 02:51:11;;;;;;;1.85;1.23;;;16.60;99.90;;;16.40;88.21;97876.25;4942149;28;20427;-48
2022/07/13 02:53:36;;;;;;;1.55;1.13;;;16.50;99.90;;;16.38;88.88;97867.47;4948018;28;20243;-46
2022/07/13 02:56:02;;;;;;;2.13;1.17;;;16.50;99.90;;;16.32;89.62;97871.34;4943289;28;20604;-47
2022/07/13 02:58:29;;;;;;;1.20;1.00;;;16.50;99.90;;;16.27;89.98;97873.38;4941900;28;20039;-46
2022/07/13 03:00:54;;;;;;;1.98;1.10;;;16.40;99.90;;;16.19;90.18;97868.47;4945905;28;20113;-46
2022/07/13 03:03:20;;;;;;;2.33;1.08;;;16.30;99.90;;;16.10;90.37;97866.28;4944731;28;20649;-50
2022/07/13 03:05:46;;;;;;;2.20;1.10;;;16.30;99.90;;;16.07;90.63;97871.75;4944018;28;20045;-46
2022/07/13 03:08:11;;;;;;;1.08;0.88;;;16.20;99.90;;;16.01;90.98;97875.59;4942689;28;20480;-48
2022/07/13 03:10:37;;;;;;;1.35;0.90;;;16.10;99.90;;;15.95;91.04;97880.38;4942250;28;20043;-46
2022/07/13 03:13:03;;;;;;;1.10;0.90;;;16.10;99.90;;;15.90;91.50;97874.41;4942998;28;20369;-47
2022/07/13 03:15:29;;;;;;;1.02;0.77;;;16.00;99.90;;;15.84;91.64;97870.28;4944101;28;20050;-46
2022/07/13 03:17:54;;;;;;;0.80;0.80;;;16.00;99.90;;;15.79;92.55;97874.97;4943815;28;20058;-49
2022/07/13 03:20:20;;;;;;;1.20;1.00;;;15.90;99.90;;;15.75;92.80;97870.75;4938484;28;20759;-47
2022/07/13 03:22:49;;;;;;;2.13;1.00;;;15.90;99.90;;;15.70;93.78;97862.94;4945594;28;20135;-48
2022/07/13 03:25:14;;;;;;;1.63;1.02;;;15.80;99.90;;;15.70;94.39;97865.59;4944246;28;20484;-46
2022/07/13 03:27:40;;;;;;;1.38;1.05;;;15.80;99.90;;;15.73;94.95;97864.59;4946654;28;20035;-50
2022/07/13 03:30:07;;;;;;;1.90;1.17;;;15.80;99.90;;;15.75;94.67;97868.09;4944346;28;20099;-49
2022/07/13 03:32:33;;;;;;;3.33;1.30;;;15.90;99.90;;;15.76;94.16;97865.34;4945890;28;20749;-49
2022/07/13 03:34:58;;;;;;;2.10;1.00;;;15.90;99.90;;;15.78;93.99;97860.81;4945468;28;20035;-49
2022/07/13 03:37:24;;;;;;;1.10;0.90;;;15.90;99.90;;;15.77;94.00;97855.56;4947375;28;20031;-47
2022/07/13 03:39:50;;;;;;;2.35;1.02;;;15.90;99.90;;;15.79;94.23;97862.53;4944926;28;20031;-46
2022/07/13 03:42:16;;;;;;;2.08;1.10;;;16.00;99.90;;;15.78;94.63;97870.59;4946226;28;20035;-49
2022/07/13 03:44:41;;;;;;;1.42;1.15;;;15.90;99.90;;;15.75;94.85;97866.28;4944558;28;20114;-49
2022/07/13 03:47:07;;;;;;;2.65;1.27;;;15.90;99.90;;;15.71;95.33;97870.00;4946832;28;20491;-47
2022/07/13 03:49:33;;;;;;;2.10;1.20;;;15.90;99.90;;;15.67;95.68;97865.78;4944790;28;20507;-46
2022/07/13 03:51:58;;;;;;;2.30;1.00;;;15.80;99.90;;;15.63;95.87;97861.53;4946790;28;20023;-48
2022/07/13 03:54:24;;;;;;;1.02;0.93;;;15.80;99.90;;;15.59;95.91;97860.81;4944927;28;20046;-48
2022/07/13 03:56:50;;;;;;;1.10;1.00;;;15.70;99.90;;;15.61;95.91;97864.28;4945352;28;20035;-47
2022/07/13 03:59:15;;;;;;;2.22;1.00;;;15.70;99.90;;;15.59;95.68;97855.50;4948930;28;20080;-50
2022/07/13 04:01:42;;;;;;;3.13;1.10;;;15.80;99.90;;;15.59;95.74;97858.16;4945950;28;20034;-48
2022/07/13 04:04:08;;;;;;;1.75;1.00;;;15.80;99.90;;;15.59;95.78;97855.50;4941314;28;20488;-48
2022/07/13 04:06:33;;;;;;;2.03;1.00;;;15.90;99.90;;;15.60;95.81;97859.06;4945101;28;20050;-47
2022/07/13 04:08:59;;;;;;;2.05;1.20;;;15.80;99.90;;;15.60;95.86;97861.72;4947399;28;20255;-50
2022/07/13 04:11:28;;;;;;;2.13;1.08;;;15.80;99.90;;;15.60;96.12;97857.25;4943993;28;20036;-47
2022/07/13 04:13:54;;;;;;;1.00;0.90;;;15.80;99.90;;;15.61;96.43;97856.31;4943782;28;20023;-47
2022/07/13 04:16:20;;;;;;;2.15;1.17;;;15.80;99.90;;;15.58;96.94;97844.97;4946119;28;20033;-47
2022/07/13 04:18:45;;;;;;;1.92;1.20;;;15.80;99.90;;;15.63;97.80;97848.25;4947733;28;20135;-49
2022/07/13 04:21:13;;;;;;;1.98;1.30;;;15.80;99.90;;;15.68;98.64;97846.22;4939404;28;20043;-45
2022/07/13 04:23:40;;;;;;;2.88;1.38;;;15.80;99.90;;;15.70;97.83;97841.66;4945382;28;20121;-48
2022/07/13 04:26:06;;;;;;;3.28;1.35;;;15.80;99.90;;;15.78;96.50;97836.88;4938300;28;20050;-45
2022/07/13 04:28:32;;;;;;;1.42;1.00;;;15.90;99.90;;;15.87;95.73;97838.22;4942926;28;20673;-48
2022/07/13 04:30:58;;;;;;;1.73;1.10;;;16.00;99.90;;;15.94;95.11;97836.94;4947882;28;20031;-51
2022/07/13 04:33:24;;;;;;;2.78;1.20;;;16.10;99.90;;;16.04;94.53;97832.00;4925563;28;20483;-50
2022/07/13 04:35:50;;;;;;;1.20;1.00;;;16.20;99.90;;;16.09;94.29;97826.44;4926781;28;20098;-46
2022/07/13 04:38:15;;;;;;;1.55;1.13;;;16.20;99.90;;;16.16;93.99;97820.72;4938583;28;20039;-47
2022/07/13 04:40:41;;;;;;;1.60;1.15;;;16.30;99.90;;;16.22;93.73;97825.72;4941188;28;20116;-49
2022/07/13 04:43:07;;;;;;;1.35;1.00;;;16.40;99.90;;;16.30;93.88;97827.97;4934932;28;20062;-49
2022/07/13 04:45:32;;;;;;;5.72;1.25;;;16.40;99.90;;;16.34;93.94;97823.34;4944329;28;20456;-50
2022/07/13 04:47:59;;;;;;;1.85;1.20;;;16.50;99.90;;;16.36;93.76;97829.44;4947112;28;20499;-47
2022/07/13 04:50:25;;;;;;;1.58;1.00;;;16.50;99.90;;;16.48;93.48;97831.44;4941180;28;20028;-50
2022/07/13 04:52:51;;;;;;;1.75;1.00;;;16.50;99.90;;;16.55;93.05;97837.31;4941858;28;20038;-50
2022/07/13 04:55:17;;;;;;;2.58;1.10;;;16.60;99.90;;;16.62;92.68;97841.38;4938411;28;20043;-47
2022/07/13 04:57:44;;;;;;;2.13;1.20;;;16.70;99.90;;;16.67;92.25;97838.44;4941999;28;20458;-53
2022/07/13 05:00:11;;;;;;;3.03;1.30;;;16.80;99.90;;;16.78;91.82;97838.72;4943330;28;20035;-50
2022/07/13 05:02:37;;;;;;;0.80;0.80;;;16.90;99.90;;;16.89;91.17;97846.16;4943992;28;20038;-49
2022/07/13 05:05:03;;;;;;;1.27;1.00;;;17.00;99.90;;;16.93;90.73;97848.53;4930592;28;20752;-49
2022/07/13 05:07:29;;;;;;;1.83;0.98;;;17.10;99.90;;;17.05;89.80;97857.69;4925066;28;20419;-49
2022/07/13 05:09:56;;;;;;;1.15;0.88;;;17.10;99.90;;;17.21;89.23;97854.13;4919345;28;20028;-46
2022/07/13 05:12:22;;;;;;;1.30;1.00;;;17.30;99.90;;;17.38;88.55;97847.84;4920132;28;20031;-49
2022/07/13 05:14:47;;;;;;;1.30;0.80;;;17.40;99.90;;;17.87;86.02;97855.69;4922744;28;20039;-50
2022/07/13 05:17:13;;;;;;;3.10;1.10;;;17.70;99.90;;;18.58;82.26;97851.41;4919686;28;20066;-50
2022/07/13 05:19:39;;;;;;;1.90;1.10;;;18.20;99.90;;;19.48;74.91;97860.81;4927674;28;20027;-47
2022/07/13 05:22:05;;;;;;;1.55;1.05;;;18.90;99.90;;;20.54;67.84;97856.31;4926385;28;20070;-46
2022/07/13 05:24:31;;;;;;;3.05;1.17;;;19.60;99.90;;;21.62;63.86;97863.84;4928208;28;20031;-46
2022/07/13 05:26:56;;;;;;;1.58;1.10;;;20.30;99.90;;;22.39;59.38;97871.44;4919338;28;20091;-47
2022/07/13 05:29:22;;;;;;;2.97;1.20;;;21.00;99.90;;;23.35;55.73;97862.09;4940858;28;20433;-49
2022/07/13 05:31:48;;;;;;;2.13;1.20;;;21.70;99.90;;;24.28;52.29;97858.78;4937804;28;20027;-49
2022/07/13 05:34:14;;;;;;;3.03;1.30;;;22.50;98.70;;;24.87;49.78;97862.69;4939335;28;20266;-49
2022/07/13 05:36:40;;;;;;;2.53;1.17;;;23.20;97.20;;;25.23;49.36;97859.53;4933586;28;20042;-48
2022/07/13 05:39:06;;;;;;;2.95;1.33;;;23.70;96.20;;;25.12;48.74;97855.09;4940101;28;20353;-47
2022/07/13 05:41:32;;;;;;;2.00;1.25;;;23.90;95.30;;;24.60;49.61;97857.84;4938621;28;20031;-47
2022/07/13 05:43:59;;;;;;;3.15;1.23;;;23.70;94.40;;;24.06;50.08;97856.22;4940895;28;20078;-49
2022/07/13 05:46:27;;;;;;;1.95;1.10;;;23.40;94.10;;;23.61;51.60;97857.22;4937442;28;20051;-51
2022/07/13 05:48:53;;;;;;;1.10;0.93;;;23.10;94.50;;;23.15;53.20;97850.22;4936582;28;20038;-49
2022/07/13 05:51:18;;;;;;;1.92;1.20;;;22.80;94.90;;;22.63;55.30;97852.53;4934140;28;20031;-49
2022/07/13 05:53:46;;;;;;;2.17;1.20;;;22.30;95.40;;;22.07;58.03;97855.94;4947190;28;20488;-48
2022/07/13 05:56:13;;;;;;;1.55;1.20;;;21.90;96.10;;;21.58;59.92;97857.84;4943187;28;20118;-46
2022/07/13 05:58:39;;;;;;;1.73;1.30;;;21.50;96.70;;;21.16;62.27;97852.81;4946671;28;20479;-50
2022/07/13 06:01:05;;;;;;;3.30;1.20;;;21.10;97.30;;;20.85;63.52;97862.19;4933992;28;20039;-50
2022/07/13 06:03:30;;;;;;;1.50;0.98;;;20.80;97.90;;;20.70;64.92;97860.63;4921847;28;20039;-49
2022/07/13 06:05:56;;;;;;;3.65;1.40;;;20.70;98.30;;;20.63;64.74;97854.84;4946901;23;20549;-44
2022/07/13 06:08:22;;;;;;;1.98;1.15;;;20.60;98.40;;;20.71;64.83;97851.59;4958337;28;20043;-46
2022/07/13 06:10:47;;;;;;;1.02;0.90;;;20.70;98.60;;;20.83;65.64;97848.06;4951219;28;20783;-47
2022/07/13 06:13:13;;;;;;;2.08;1.10;;;20.80;98.90;;;20.99;65.05;97837.09;4958180;28;20054;-43
2022/07/13 06:15:39;;;;;;;3.25;1.00;;;20.90;98.70;;;21.16;64.54;97836.72;4949443;28;20275;-46
2022/07/13 06:18:05;;;;;;;3.08;1.20;;;21.10;98.50;;;21.30;63.42;97840.22;4939375;28;20023;-44
2022/07/13 06:20:30;;;;;;;1.98;1.20;;;21.30;98.10;;;21.45;63.80;97847.16;4940557;28;20515;-43
2022/07/13 06:23:11;;;;;;;1.48;1.00;;;21.50;98.20;;;21.59;63.11;97835.41;4924566;28;20039;-43
2022/07/13 06:25:38;;;;;;;2.25;1.00;;;21.60;97.90;;;21.79;62.31;97841.13;4918513;28;20075;-46
2022/07/13 06:28:05;;;;;;;1.70;1.02;;;21.80;97.60;;;21.99;61.17;97844.97;4920144;28;21492;-43
2022/07/13 06:30:34;;;;;;;1.70;1.05;;;22.00;97.40;;;22.06;60.40;97847.03;4927206;28;20038;-44
2022/07/13 06:33:00;;;;;;;2.15;1.20;;;22.10;96.90;;;22.22;60.24;97860.16;4902425;29;20089;-43
2022/07/13 06:35:26;;;;;;;1.77;1.05;;;22.20;97.20;;;22.35;59.71;97853.88;4917892;28;20043;-43
2022/07/13 06:37:51;;;;;;;2.17;1.10;;;22.30;96.70;;;22.45;59.29;97854.84;4920919;28;20039;-46
2022/07/13 06:40:17;;;;;;;1.85;1.13;;;22.40;96.50;;;22.51;58.74;97848.16;4911927;28;20031;-43
2022/07/13 06:42:46;;;;;;;2.50;1.25;;;22.50;96.20;;;22.64;58.74;97851.56;4916380;28;20823;-44
2022/07/13 06:45:13;;;;;;;1.92;1.10;;;22.60;96.20;;;22.64;56.92;97854.25;4925523;28;20822;-44
2022/07/13 06:47:39;;;;;;;2.00;1.30;;;22.60;95.60;;;22.76;57.45;97857.81;4944160;28;20035;-45
2022/07/13 06:50:08;;;;;;;5.22;1.17;;;22.70;95.50;;;22.83;55.80;97859.03;4932994;28;20497;-43
2022/07/13 06:52:34;;;;;;;3.22;1.10;;;22.80;95.10;;;23.06;55.63;97858.09;4937608;28;20082;-42
2022/07/13 06:55:00;;;;;;;2.78;1.35;;;23.00;94.60;;;23.24;51.49;97863.81;4944439;28;20027;-44
2022/07/13 06:57:26;;;;;;;3.40;1.10;;;23.20;93.60;;;23.34;51.88;97854.97;4935900;28;20031;-43
2022/07/13 06:59:51;;;;;;;2.35;1.10;;;23.20;93.00;;;23.28;50.70;97855.50;4934938;28;20044;-43
2022/07/13 07:02:17;;;;;;;1.35;1.00;;;23.20;92.30;;;23.17;49.73;97864.44;4929831;28;20138;-45
2022/07/13 07:04:43;;;;;;;3.03;1.00;;;23.10;92.00;;;23.04;51.17;97867.19;4919552;28;20038;-43
2022/07/13 07:07:09;;;;;;;1.45;0.88;;;23.00;92.30;;;22.95;51.63;97871.50;4930487;28;20051;-44
2022/07/13 07:09:35;;;;;;;2.65;1.10;;;22.90;92.40;;;23.00;51.60;97871.13;4935800;28;20027;-46
2022/07/13 07:12:01;;;;;;;4.15;0.98;;;23.00;92.40;;;23.13;51.47;97868.34;4928406;28;20211;-42
2022/07/13 07:14:27;;;;;;;1.08;0.80;;;23.10;92.20;;;23.30;50.95;97859.75;4925939;28;20075;-43
2022/07/13 07:16:53;;;;;;;2.17;1.00;;;23.30;92.10;;;23.48;50.11;97860.06;4936073;28;20472;-42
2022/07/13 07:19:20;;;;;;;2.17;1.08;;;23.50;91.70;;;23.63;49.39;97858.81;4940320;28;20317;-44
2022/07/13 07:21:45;;;;;;;5.53;1.20;;;23.60;91.10;;;23.75;49.54;97866.84;4940498;28;20031;-44
2022/07/13 07:24:11;;;;;;;1.80;1.20;;;23.70;91.10;;;23.86;48.90;97857.91;4936533;28;20054;-44
2022/07/13 07:26:37;;;;;;;3.22;1.20;;;23.90;90.50;;;23.96;48.96;97853.47;4939660;28;20039;-44
2022/07/13 07:29:02;;;;;;;2.55;1.17;;;24.00;90.50;;;24.08;48.18;97856.94;4933033;28;20086;-43
2022/07/13 07:31:28;;;;;;;2.67;1.20;;;24.00;90.10;;;24.20;47.91;97845.97;4939893;28;20031;-44
2022/07/13 07:33:54;;;;;;;2.22;1.30;;;24.20;90.00;;;24.36;47.10;97856.28;4938340;28;20062;-46
2022/07/13 07:36:20;;;;;;;3.55;1.42;;;24.30;88.80;;;24.43;46.83;97826.13;4942005;28;20035;-46
2022/07/13 07:38:45;;;;;;;3.50;1.50;;;24.50;88.20;;;24.70;46.42;97845.28;4928356;28;20050;-46
2022/07/13 07:41:11;;;;;;;3.05;1.15;;;24.70;87.60;;;24.98;44.39;97850.09;4946698;28;20083;-44
2022/07/13 07:43:38;;;;;;;2.38;1.17;;;25.00;85.00;;;25.17;44.19;97841.22;4945468;28;20031;-44
2022/07/13 07:46:04;;;;;;;3.10;1.15;;;25.20;84.20;;;25.43;44.25;97834.34;4942077;28;20031;-45
2022/07/13 07:48:30;;;;;;;1.75;1.10;;;25.40;83.60;;;25.74;44.63;97846.88;4938568;28;20035;-46
2022/07/13 07:50:56;;;;;;;1.55;0.80;;;25.70;83.70;;;26.22;42.39;97846.00;4938650;28;20113;-43
2022/07/13 07:53:21;;;;;;;2.15;1.20;;;26.20;81.40;;;26.61;40.30;97844.13;4943312;28;20061;-43
2022/07/13 07:55:47;;;;;;;3.75;1.08;;;26.60;78.80;;;26.80;40.15;97842.34;4941430;28;20491;-43
2022/07/13 07:58:16;;;;;;;2.90;1.50;;;26.80;76.40;;;27.01;40.01;97842.13;4940425;28;20238;-45
2022/07/13 08:00:43;;;;;;;1.50;0.80;;;27.10;75.90;;;27.32;39.09;97840.00;4941495;28;20483;-43
2022/07/13 08:03:09;;;;;;;4.18;1.27;;;27.30;74.80;;;27.64;38.33;97844.06;4939313;28;20054;-43
2022/07/13 08:05:36;;;;;;;1.35;0.90;;;27.60;72.90;;;27.89;37.74;97847.88;4938630;28;20070;-45
2022/07/13 08:08:04;;;;;;;4.85;0.90;;;27.80;71.80;;;28.04;37.07;97845.47;4938978;28;20043;-44
2022/07/13 08:10:30;;;;;;;1.65;1.10;;;27.90;70.70;;;28.21;37.78;97848.31;4930667;28;20039;-44
2022/07/13 08:13:03;;;;;;;6.53;1.35;;;28.10;71.10;;;28.30;38.28;97839.22;4941129;28;20059;-44
2022/07/13 08:15:29;;;;;;;1.65;1.00;;;28.20;71.90;;;28.37;34.79;97840.31;4944772;28;20031;-45
2022/07/13 08:17:57;;;;;;;1.42;0.95;;;28.30;67.60;;;28.45;34.23;97842.25;4939861;28;20030;-43
2022/07/13 08:20:23;;;;;;;1.00;0.90;;;28.40;63.90;;;28.45;34.42;97847.66;4940536;28;20044;-43
2022/07/13 08:22:50;;;;;;;1.20;0.65;;;28.30;63.10;;;28.57;33.88;97835.56;4935071;28;20046;-45
2022/07/13 08:25:15;;;;;;;1.75;0.70;;;28.50;62.40;;;28.65;35.60;97838.31;4933412;28;20349;-44
2022/07/13 08:27:41;;;;;;;2.13;0.90;;;28.60;63.90;;;28.72;34.45;97835.81;4939601;28;20027;-45
2022/07/13 08:30:08;;;;;;;4.40;1.00;;;28.60;63.30;;;28.67;34.74;97838.16;4947359;28;20081;-45
2022/07/13 08:32:34;;;;;;;1.33;0.90;;;28.60;61.90;;;28.70;35.65;97833.28;4945280;28;20032;-43
2022/07/13 08:40:28;;;;;;;2.00;1.08;;;28.90;64.50;;;28.93;36.17;97832.72;4941854;28;20046;-45
2022/07/13 08:42:53;;;;;;;3.55;1.30;;;28.90;64.70;;;28.80;36.21;97827.72;4948227;28;20027;-43
2022/07/13 08:45:19;;;;;;;3.20;1.58;;;28.80;64.70;;;28.86;36.89;97829.78;4942747;28;20050;-47
2022/07/13 08:47:47;;;;;;;3.40;1.33;;;28.70;65.80;;;28.89;36.09;97828.59;4940318;28;20063;-47
2022/07/13 08:50:13;;;;;;;2.15;1.20;;;28.80;64.60;;;28.88;36.54;97832.34;4926716;28;20098;-44
2022/07/13 08:52:41;;;;;;;1.77;1.00;;;28.70;65.00;;;28.85;35.52;97829.94;4939388;28;20457;-45
2022/07/13 08:55:08;;;;;;;3.83;1.17;;;28.60;63.40;;;28.75;35.41;97825.50;4946129;28;20085;-44
2022/07/13 08:57:39;;;;;;;2.33;1.45;;;28.50;63.70;;;28.73;35.09;97823.94;4936124;28;20109;-43
2022/07/13 09:00:11;;;;;;;4.32;1.10;;;28.60;63.30;;;28.64;34.91;97817.66;4941611;28;20476;-46
2022/07/13 09:02:38;;;;;;;;;;;28.50;61.90;;;28.58;36.39;97820.13;4943968;28;20059;-45
2022/07/13 09:05:06;;;;;;;1.40;0.95;;;28.50;63.20;;;28.52;36.45;97821.59;4937709;28;19914;-44
2022/07/13 09:07:34;;;;;;;2.35;1.10;;;28.40;64.50;;;28.36;36.56;97823.19;4941356;28;20511;-45
2022/07/13 09:10:02;;;;;;;3.80;1.10;;;28.20;64.80;;;28.17;36.06;97826.09;4947461;28;20042;-44
2022/07/13 09:12:28;;;;;;;2.42;1.27;;;28.00;63.30;;;27.92;36.68;97820.47;4942588;28;20071;-42
2022/07/13 09:14:56;;;;;;;1.23;0.90;;;27.80;63.90;;;27.78;37.00;97823.69;4942639;28;20480;-43
2022/07/13 09:17:42;;;;;;;1.98;1.00;;;27.60;63.90;;;27.58;36.37;97823.88;4937688;28;20125;-43
2022/07/13 09:20:14;;;;;;;1.85;1.00;;;27.50;64.60;;;27.46;36.26;97822.38;4945350;28;20146;-43
2022/07/13 09:22:59;;;;;;;1.75;1.00;;;27.30;63.40;;;27.26;34.46;97832.47;4942751;28;20035;-47
2022/07/13 09:25:38;;;;;;;1.00;0.90;;;27.30;59.60;;;27.27;33.47;97826.06;4945267;28;20090;-46
2022/07/13 09:28:09;;;;;;;1.00;0.90;;;27.30;59.20;;;27.38;34.10;97836.66;4941260;28;20062;-41
2022/07/13 09:30:41;;;;;;;0.90;0.80;;;27.30;59.20;;;27.53;33.22;97833.44;4943923;28;20027;-44
2022/07/13 09:33:07;;;;;;;1.38;0.65;;;27.40;58.70;;;27.69;33.23;97835.47;4947604;28;20090;-47
2022/07/13 09:35:45;;;;;;;1.17;0.73;;;27.60;58.40;;;27.84;33.41;97831.22;4945843;28;20046;-43
2022/07/13 09:38:37;;;;;;;1.77;0.80;;;27.70;58.40;;;27.76;33.60;97825.69;4944924;28;20034;-44
2022/07/13 09:41:18;;;;;;;1.00;0.90;;;27.60;58.10;;;27.69;33.16;97828.19;4926701;28;20121;-46
2022/07/13 09:47:00;;;;;;;1.27;0.90;;;27.50;57.80;;;27.68;31.91;97831.91;4941049;28;20062;-47
2022/07/13 09:49:42;;;;;;;1.20;0.70;;;27.50;56.60;;;27.66;31.92;97833.06;4944878;29;20078;-47
2022/07/13 09:52:19;;;;;;;0.77;0.70;;;27.50;56.50;;;27.57;31.53;97827.56;4948215;29;20033;-46
2022/07/13 09:54:51;;;;;;;1.60;0.75;;;27.50;55.10;;;27.42;30.86;97829.97;4944705;29;20073;-43
2022/07/13 09:57:20;;;;;;;1.05;0.80;;;27.40;53.90;;;27.42;31.48;97829.09;4942854;28;20543;-43
2022/07/13 09:59:46;;;;;;;1.10;0.70;;;27.30;54.70;;;27.38;31.58;97815.00;4945718;29;20043;-48
2022/07/13 10:02:16;;;;;;;0.98;0.80;;;27.30;54.70;;;27.37;31.66;97815.19;4930519;29;20051;-42
2022/07/13 10:04:42;;;;;;;0.95;0.80;;;27.40;55.00;;;27.47;30.22;97829.47;4940188;29;20082;-43
2022/07/13 10:07:09;;;;;;;5.55;0.73;;;27.40;53.70;;;27.52;30.57;97824.47;4948286;28;20035;-42
2022/07/13 10:09:39;;;;;;;1.52;0.80;;;27.40;53.90;;;27.58;31.72;97828.41;4934722;29;20027;-45
2022/07/13 10:12:10;;;;;;;2.88;1.00;;;27.40;54.90;;;27.59;31.85;97830.97;4943506;28;20062;-45
2022/07/13 10:14:38;;;;;;;0.90;0.65;;;27.50;55.20;;;27.59;28.87;97836.38;4944641;28;20023;-44
2022/07/13 10:17:14;;;;;;;0.68;0.68;;;27.50;52.90;;;27.55;29.38;97828.75;4943358;28;20035;-42
2022/07/13 10:20:29;;;;;;;2.42;1.00;;;27.50;51.50;;;27.60;30.66;97827.25;4931156;29;20407;-43
2022/07/13 10:22:55;;;;;;;1.52;0.80;;;27.50;53.30;;;27.77;30.75;97822.84;4930130;29;20094;-45
2022/07/13 10:25:24;;;;;;;0.57;0.57;;;27.60;53.50;;;27.88;28.94;97820.91;4946590;28;20059;-44
2022/07/13 10:28:05;;;;;;;4.53;0.73;;;27.70;51.90;;;27.97;28.61;97818.13;4945238;28;20034;-44
2022/07/13 10:30:31;;;;;;;0.77;0.55;;;27.80;50.80;;;28.04;27.55;97821.09;4944499;28;20031;-40